Pocono Manor, Pennsylvania
Current Conditions -  °F | °C
As of 8:53 AM on Thursday 18 Dec 2014 (Local Time) from KMPO Reporting Station
Overcast Overcast  
Wind Chill: 15°   Ceiling: 2000
Heat Index: 29°   Visibility: 10mi
Dew Point: 20°   Wind: 22mph
Humidity: 69%   Direction: 310°NW
Pressure: 29.93"   Gusts: 33mph
Location:  41.1°N, 75.36°W
Report Text: KMPO 181353Z AUTO 31019G29KT 10SM OVC020 M02/M07 A2993 RMK AO2 PK WND 31029/1347 SLP156 T10171067
Loading
Personal Weather Stations






























Interactive Weather Map New forecast layout! Learn more

10-Day Weather Forecast

Advertisements
Track Severe Weather on mobile